Pittsburgh, Pennsylvania
Traffic Map
Current Weather Conditions
Pittsburgh, Pennsylvania
Clear
Clear

Feels Like: 2°
Wind Chill: Ceiling: Unl
Heat Index: Visibility: 10mi
Dew Point: Wind: 8mph
Humidity: 70% Direction: 170° (S)
Pressure: 30.02in Gusts: 0mph
Raw Report DataKAGC 200953Z 17007KT 10SM CLR 05/00 A3002 RMK AO2 SLP175 T00500000
Traffic Incident Summary
Active as of:
Severity:
Category:
InformationThere was an issue retrieving the traffic information for this location. Please try a different location or try again shortly.
Advertisements
Track Severe Weather on mobile